Time;durP1;ratioP1;P1;durP2;ratioP2;P2;SDS_P1;SDS_P2;PMS_P1;PMS_P2;Temp;Humidity;BMP_temperature;BMP_pressure;BME280_temperature;BME280_humidity;BME280_pressure;Samples;Min_cycle;Max_cycle;Signal;HPM_P1;HPM_P2
2022/09/27 00:02:21;;;;;;;2.58;1.98;;;14.50;99.90;;;;;;5030582;28;20064;-82
2022/09/27 00:04:46;;;;;;;3.92;1.83;;;14.50;99.90;;;;;;5035331;28;20551;-80
2022/09/27 00:07:12;;;;;;;5.75;2.60;;;14.50;99.90;;;;;;5032580;28;20060;-78
2022/09/27 00:09:38;;;;;;;5.68;2.38;;;14.50;99.90;;;;;;5065831;28;20028;-81
2022/09/27 00:12:04;;;;;;;5.68;2.55;;;14.50;99.90;;;;;;5041901;28;20481;-80
2022/09/27 00:14:30;;;;;;;6.35;1.95;;;14.50;99.90;;;;;;5060748;28;20497;-80
2022/09/27 00:16:55;;;;;;;3.85;2.70;;;14.50;99.90;;;;;;5033989;28;20032;-79
2022/09/27 00:19:24;;;;;;;4.07;2.42;;;14.50;99.90;;;;;;5060635;28;20057;-80
2022/09/27 00:21:50;;;;;;;4.28;2.10;;;14.50;99.90;;;;;;5042724;28;20046;-81
2022/09/27 00:24:19;;;;;;;3.78;1.98;;;14.40;99.90;;;;;;5065597;28;20477;-79
2022/09/27 00:26:46;;;;;;;4.13;1.73;;;14.40;99.90;;;;;;5040872;28;20020;-79
2022/09/27 00:29:12;;;;;;;2.55;1.92;;;14.40;99.90;;;;;;5055763;28;20055;-79
2022/09/27 00:31:38;;;;;;;3.63;2.45;;;14.40;99.90;;;;;;5046161;28;20020;-79
2022/09/27 00:34:06;;;;;;;2.85;1.90;;;14.40;99.90;;;;;;5053262;28;20036;-79
2022/09/27 00:36:33;;;;;;;3.42;2.13;;;14.40;99.90;;;;;;5037529;28;20086;-80
2022/09/27 00:39:00;;;;;;;3.30;2.17;;;14.40;99.90;;;;;;5054793;28;20025;-79
2022/09/27 00:41:32;;;;;;;3.40;2.20;;;14.40;99.90;;;;;;5054331;28;20386;-79
2022/09/27 00:44:23;;;;;;;4.15;1.70;;;14.40;99.90;;;;;;5059236;28;20098;-80
2022/09/27 00:47:01;;;;;;;4.65;2.85;;;14.40;99.90;;;;;;5050061;28;20036;-80
2022/09/27 00:49:42;;;;;;;3.50;2.22;;;14.50;99.90;;;;;;5032315;28;21387;-79
2022/09/27 00:52:14;;;;;;;3.75;2.28;;;14.50;99.90;;;;;;5035457;28;20032;-80
2022/09/27 00:54:45;;;;;;;4.43;2.30;;;14.40;99.90;;;;;;5054304;28;20238;-81
2022/09/27 00:57:11;;;;;;;2.38;1.80;;;14.40;99.90;;;;;;5056886;28;20062;-80
2022/09/27 00:59:48;;;;;;;3.40;2.40;;;14.40;99.90;;;;;;5030028;28;20020;-80
2022/09/27 01:02:14;;;;;;;2.50;2.20;;;14.40;99.90;;;;;;5042370;28;20079;-80
2022/09/27 01:04:42;;;;;;;4.90;2.38;;;14.40;99.90;;;;;;5033447;28;20029;-80
2022/09/27 01:07:08;;;;;;;3.70;2.35;;;14.40;99.90;;;;;;5045485;28;20054;-80
2022/09/27 01:09:34;;;;;;;4.22;1.90;;;14.40;99.90;;;;;;5052326;28;20024;-80
2022/09/27 01:12:07;;;;;;;2.00;1.77;;;14.40;99.90;;;;;;5037377;28;20712;-79
2022/09/27 01:14:55;;;;;;;2.95;2.65;;;14.40;99.90;;;;;;5032051;28;20032;-78
2022/09/27 01:17:58;;;;;;;4.55;2.67;;;14.30;99.90;;;;;;5040588;28;20520;-78
2022/09/27 01:20:48;;;;;;;2.47;1.83;;;14.40;99.90;;;;;;5031186;28;20025;-79
2022/09/27 01:23:33;;;;;;;6.75;2.72;;;14.40;99.90;;;;;;5054075;28;20116;-78
2022/09/27 01:26:18;;;;;;;4.88;2.42;;;14.40;99.90;;;;;;5047791;28;20421;-78
2022/09/27 01:29:10;;;;;;;4.47;2.50;;;14.40;99.90;;;;;;5062406;28;20025;-78
2022/09/27 01:31:47;;;;;;;5.82;2.08;;;14.40;99.90;;;;;;5052852;28;20029;-78
2022/09/27 01:34:39;;;;;;;3.20;2.10;;;14.40;99.90;;;;;;5034315;28;20052;-79
2022/09/27 01:37:24;;;;;;;2.97;2.10;;;14.30;99.90;;;;;;5045696;28;20021;-79
2022/09/27 01:40:01;;;;;;;5.97;2.47;;;14.40;99.90;;;;;;5056756;28;20025;-80
2022/09/27 01:42:36;;;;;;;3.42;2.20;;;14.40;99.90;;;;;;5033429;28;20393;-79
2022/09/27 01:45:02;;;;;;;3.38;2.25;;;14.30;99.90;;;;;;5050893;28;20080;-78
2022/09/27 01:47:58;;;;;;;3.70;2.28;;;14.40;99.90;;;;;;5040875;28;20033;-78
2022/09/27 01:50:28;;;;;;;3.40;1.90;;;14.40;99.90;;;;;;5047138;28;20040;-78
2022/09/27 01:53:17;;;;;;;4.60;1.90;;;14.40;99.90;;;;;;5048861;28;20033;-77
2022/09/27 01:55:45;;;;;;;4.32;2.08;;;14.30;99.90;;;;;;5049106;28;20051;-78
2022/09/27 01:58:17;;;;;;;7.25;2.30;;;14.40;99.90;;;;;;5057018;28;20025;-80
2022/09/27 02:00:45;;;;;;;2.80;1.90;;;14.40;99.90;;;;;;5061933;28;20029;-78
2022/09/27 02:03:17;;;;;;;3.80;2.00;;;14.40;99.90;;;;;;5035573;28;20040;-80
2022/09/27 02:05:51;;;;;;;2.50;2.17;;;14.40;99.90;;;;;;5045026;28;20032;-80
2022/09/27 02:08:35;;;;;;;3.40;2.25;;;14.40;99.90;;;;;;5044651;28;20067;-81
2022/09/27 02:11:07;;;;;;;3.85;1.98;;;14.40;99.90;;;;;;5064039;28;20040;-79
2022/09/27 02:13:59;;;;;;;3.58;2.30;;;14.40;99.90;;;;;;5060805;22;20387;-84
2022/09/27 02:16:46;;;;;;;5.05;2.45;;;14.40;99.90;;;;;;5050434;28;20024;-84
2022/09/27 02:19:17;;;;;;;4.13;2.10;;;14.30;99.90;;;;;;5046207;28;20074;-85
2022/09/27 02:22:14;;;;;;;2.45;2.17;;;14.40;99.90;;;;;;5053958;28;20035;-85
2022/09/27 02:24:49;;;;;;;4.78;2.17;;;14.30;99.90;;;;;;5030794;28;20715;-86
2022/09/27 02:27:25;;;;;;;5.88;2.72;;;14.30;99.90;;;;;;5046325;28;20047;-85
2022/09/27 02:30:12;;;;;;;4.18;1.90;;;14.30;99.90;;;;;;5052782;28;20028;-86
2022/09/27 02:32:38;;;;;;;3.28;2.15;;;14.40;99.90;;;;;;5039362;28;20400;-84
2022/09/27 02:35:30;;;;;;;4.05;2.20;;;14.40;99.90;;;;;;5062724;28;20033;-84
2022/09/27 02:37:57;;;;;;;3.90;2.00;;;14.30;99.90;;;;;;5060735;28;20029;-85
2022/09/27 02:40:25;;;;;;;3.22;2.30;;;14.30;99.90;;;;;;5071129;28;20037;-85
2022/09/27 02:42:51;;;;;;;2.95;1.95;;;14.30;99.90;;;;;;5054562;28;20027;-85
2022/09/27 02:45:18;;;;;;;4.07;2.03;;;14.40;99.90;;;;;;5043115;28;20094;-85
2022/09/27 02:48:09;;;;;;;3.78;1.90;;;14.40;99.90;;;;;;5051632;28;20032;-85
2022/09/27 02:51:09;;;;;;;2.55;2.10;;;14.30;99.90;;;;;;5072104;28;20086;-85
2022/09/27 02:53:54;;;;;;;3.33;2.05;;;14.30;99.90;;;;;;5020734;28;20032;-84
2022/09/27 02:56:42;;;;;;;4.40;2.22;;;14.30;99.90;;;;;;5067036;28;20116;-84
2022/09/27 02:59:14;;;;;;;4.82;2.15;;;14.30;99.90;;;;;;5035946;28;20362;-84
2022/09/27 03:01:39;;;;;;;4.72;2.30;;;14.30;99.90;;;;;;5049731;28;20044;-84
2022/09/27 03:04:36;;;;;;;2.95;1.88;;;14.30;99.90;;;;;;5043873;28;20017;-84
2022/09/27 03:07:02;;;;;;;2.42;1.83;;;14.30;99.90;;;;;;5049757;28;20021;-84
2022/09/27 03:09:39;;;;;;;5.25;1.90;;;14.30;99.90;;;;;;5048951;28;20028;-84
2022/09/27 03:12:04;;;;;;;3.17;2.10;;;14.30;99.90;;;;;;5074833;28;20381;-84
2022/09/27 03:14:30;;;;;;;4.43;2.25;;;14.30;99.90;;;;;;5048210;28;20033;-83
2022/09/27 03:16:56;;;;;;;2.47;2.10;;;14.30;99.90;;;;;;5046954;28;20029;-84
2022/09/27 03:19:23;;;;;;;3.42;2.38;;;14.30;99.90;;;;;;5055842;28;20039;-85
2022/09/27 03:21:49;;;;;;;4.20;1.83;;;14.30;99.90;;;;;;5060855;28;20126;-84
2022/09/27 03:24:14;;;;;;;3.97;1.85;;;14.30;99.90;;;;;;5061831;28;20435;-84
2022/09/27 03:26:40;;;;;;;2.97;1.80;;;14.30;99.90;;;;;;5041860;28;20029;-85
2022/09/27 03:29:06;;;;;;;3.20;1.83;;;14.30;99.90;;;;;;5044375;28;20033;-84
2022/09/27 03:31:31;;;;;;;3.53;2.33;;;14.30;99.90;;;;;;5043621;28;20024;-84
2022/09/27 03:33:57;;;;;;;2.35;1.60;;;14.30;99.90;;;;;;5050496;28;20028;-84
2022/09/27 03:36:23;;;;;;;2.40;1.88;;;14.30;99.90;;;;;;5049746;28;20021;-84
2022/09/27 03:38:48;;;;;;;3.58;1.90;;;14.30;99.90;;;;;;5042597;28;20028;-84
2022/09/27 03:41:14;;;;;;;2.85;2.20;;;14.30;99.90;;;;;;5053581;28;20496;-84
2022/09/27 03:43:42;;;;;;;2.85;1.85;;;14.30;99.90;;;;;;5069653;28;20024;-85
2022/09/27 03:46:08;;;;;;;4.82;2.40;;;14.30;99.90;;;;;;5065988;28;20017;-84
2022/09/27 03:48:34;;;;;;;3.03;2.13;;;14.30;99.90;;;;;;5053977;28;20181;-84
2022/09/27 03:50:59;;;;;;;3.55;2.53;;;14.30;99.90;;;;;;5046932;28;20532;-84
2022/09/27 03:53:25;;;;;;;4.18;1.88;;;14.30;99.90;;;;;;5052414;28;20044;-84
2022/09/27 03:55:50;;;;;;;5.00;2.08;;;14.30;99.90;;;;;;5052960;28;20033;-84
2022/09/27 03:58:16;;;;;;;3.45;2.35;;;14.30;99.90;;;;;;5054372;28;20387;-84
2022/09/27 04:00:44;;;;;;;2.65;2.08;;;14.30;99.90;;;;;;5055213;28;20105;-85
2022/09/27 04:03:10;;;;;;;3.15;2.10;;;14.30;99.90;;;;;;5052173;28;20074;-84
2022/09/27 04:05:36;;;;;;;3.25;1.77;;;14.30;99.90;;;;;;5061958;28;20071;-85
2022/09/27 04:08:04;;;;;;;2.53;1.90;;;14.20;99.90;;;;;;5053264;28;20017;-84
2022/09/27 04:10:30;;;;;;;3.70;1.60;;;14.20;99.90;;;;;;5048073;28;20484;-84
2022/09/27 04:12:55;;;;;;;2.83;2.05;;;14.20;99.90;;;;;;5052427;28;20028;-85
2022/09/27 04:15:21;;;;;;;3.38;2.20;;;14.30;99.90;;;;;;5053117;28;20036;-85
2022/09/27 04:17:47;;;;;;;2.25;1.83;;;14.20;99.90;;;;;;5054405;28;20032;-85
2022/09/27 04:20:12;;;;;;;2.65;2.03;;;14.30;99.90;;;;;;5042826;28;20170;-84
2022/09/27 04:22:40;;;;;;;3.13;2.03;;;14.30;99.90;;;;;;5043811;28;20032;-84
2022/09/27 04:25:08;;;;;;;3.30;2.15;;;14.30;99.90;;;;;;5069483;28;20103;-84
2022/09/27 04:27:34;;;;;;;4.25;2.17;;;14.30;99.90;;;;;;5047168;28;20020;-85
2022/09/27 04:29:59;;;;;;;3.58;2.28;;;14.20;99.90;;;;;;5070333;28;20043;-85
2022/09/27 04:32:25;;;;;;;4.25;1.95;;;14.20;99.90;;;;;;5041259;28;20052;-84
2022/09/27 04:37:35;;;;;;;;;;;14.20;99.90;;;;;;5065075;28;20561;-84
2022/09/27 04:40:02;;;;;;;3.33;2.10;;;14.20;99.90;;;;;;5067809;28;19969;-84
2022/09/27 04:42:27;;;;;;;3.05;2.05;;;14.20;99.90;;;;;;5051167;28;20032;-83
2022/09/27 04:44:53;;;;;;;4.15;1.65;;;14.20;99.90;;;;;;5066039;28;20023;-83
2022/09/27 04:47:20;;;;;;;2.55;1.83;;;14.20;99.90;;;;;;5052890;28;20028;-84
2022/09/27 04:49:46;;;;;;;3.78;2.03;;;14.10;99.90;;;;;;5069189;28;20017;-84
2022/09/27 04:52:14;;;;;;;2.03;1.70;;;14.20;99.90;;;;;;5063670;28;20098;-84
2022/09/27 04:54:40;;;;;;;1.85;1.63;;;14.20;99.90;;;;;;5051288;28;20029;-84
2022/09/27 04:57:05;;;;;;;3.53;1.90;;;14.20;99.90;;;;;;5066530;28;20462;-84
2022/09/27 04:59:31;;;;;;;4.70;1.83;;;14.20;99.90;;;;;;5064349;28;20036;-84
2022/09/27 05:01:59;;;;;;;3.03;1.50;;;14.20;99.90;;;;;;5055267;28;20682;-83
2022/09/27 05:04:25;;;;;;;2.80;1.60;;;14.20;99.90;;;;;;5032890;28;20028;-84
2022/09/27 05:06:51;;;;;;;4.30;1.88;;;14.20;99.90;;;;;;5060441;28;20033;-83
2022/09/27 05:09:16;;;;;;;1.60;1.50;;;14.20;99.90;;;;;;5049614;28;20032;-84
2022/09/27 05:11:42;;;;;;;4.00;2.10;;;14.20;99.90;;;;;;5061684;28;20488;-84
2022/09/27 05:14:12;;;;;;;2.72;1.70;;;14.20;99.90;;;;;;5046519;28;20028;-84
2022/09/27 05:16:38;;;;;;;3.22;1.67;;;14.20;99.90;;;;;;5058012;28;20035;-84
2022/09/27 05:19:04;;;;;;;1.70;1.58;;;14.10;99.90;;;;;;5054182;28;20024;-83
2022/09/27 05:21:30;;;;;;;1.73;1.58;;;14.20;99.90;;;;;;5063928;28;20060;-83
2022/09/27 05:23:56;;;;;;;2.78;1.42;;;14.20;99.90;;;;;;5044246;28;20432;-83
2022/09/27 05:26:22;;;;;;;3.53;1.90;;;14.20;99.90;;;;;;5047391;28;20027;-83
2022/09/27 05:28:48;;;;;;;2.78;2.33;;;14.20;99.90;;;;;;5060756;28;20021;-83
2022/09/27 05:31:15;;;;;;;2.10;1.60;;;14.20;99.90;;;;;;5060451;28;20029;-84
2022/09/27 05:33:40;;;;;;;6.22;2.40;;;14.20;99.90;;;;;;5050085;28;20029;-84
2022/09/27 05:36:07;;;;;;;3.03;1.70;;;14.20;99.90;;;;;;5040212;28;20086;-83
2022/09/27 05:38:34;;;;;;;3.58;2.28;;;14.10;99.90;;;;;;5054916;28;20028;-83
2022/09/27 05:40:59;;;;;;;3.33;1.60;;;14.20;99.90;;;;;;5056032;28;20024;-83
2022/09/27 05:43:25;;;;;;;3.45;2.00;;;14.20;99.90;;;;;;5062896;28;20037;-83
2022/09/27 05:45:51;;;;;;;4.30;2.20;;;14.20;99.90;;;;;;5035149;28;20052;-83
2022/09/27 05:48:17;;;;;;;3.75;1.95;;;14.10;99.90;;;;;;5047102;28;20055;-83
2022/09/27 05:50:44;;;;;;;2.97;1.90;;;14.10;99.90;;;;;;5063673;28;20021;-83
2022/09/27 05:53:12;;;;;;;3.15;2.08;;;14.10;99.90;;;;;;5060734;28;20028;-83
2022/09/27 05:55:37;;;;;;;2.58;2.13;;;14.10;99.90;;;;;;5055517;28;20024;-83
2022/09/27 05:58:05;;;;;;;3.53;1.90;;;14.10;99.90;;;;;;5050125;28;20170;-84
2022/09/27 06:00:31;;;;;;;3.40;1.80;;;14.10;99.90;;;;;;5052681;28;20025;-84
2022/09/27 06:02:59;;;;;;;2.97;1.67;;;14.10;99.90;;;;;;5038593;28;20048;-84
2022/09/27 06:05:27;;;;;;;2.38;1.98;;;14.10;99.90;;;;;;5064086;28;20077;-83
2022/09/27 06:07:59;;;;;;;3.03;2.10;;;14.10;99.90;;;;;;5067167;28;20520;-83
2022/09/27 06:10:25;;;;;;;3.45;2.33;;;14.10;99.90;;;;;;5066168;28;20163;-83
2022/09/27 06:12:51;;;;;;;2.28;1.52;;;14.10;99.90;;;;;;5028107;28;20575;-84
2022/09/27 06:15:16;;;;;;;2.30;1.75;;;14.10;99.90;;;;;;5060788;28;20044;-83
2022/09/27 06:17:42;;;;;;;3.95;1.40;;;14.10;99.90;;;;;;5060730;28;20396;-84
2022/09/27 06:20:08;;;;;;;1.98;1.63;;;14.10;99.90;;;;;;5054912;28;20017;-83
2022/09/27 06:22:35;;;;;;;3.17;2.10;;;14.10;99.90;;;;;;5054811;28;20484;-85
2022/09/27 06:25:02;;;;;;;2.70;1.52;;;14.10;99.90;;;;;;5053128;28;20052;-83
2022/09/27 06:27:31;;;;;;;3.63;1.80;;;14.10;99.90;;;;;;5068658;28;20032;-83
2022/09/27 06:29:57;;;;;;;2.67;1.83;;;14.10;99.90;;;;;;5062201;28;20021;-83
2022/09/27 06:32:22;;;;;;;2.33;1.35;;;14.10;99.90;;;;;;5051586;28;20565;-83
2022/09/27 06:34:49;;;;;;;3.58;1.70;;;14.10;99.90;;;;;;5044871;28;20203;-86
2022/09/27 06:37:15;;;;;;;2.15;1.58;;;14.10;99.90;;;;;;5053336;28;20080;-86
2022/09/27 06:39:41;;;;;;;3.58;1.48;;;14.10;99.90;;;;;;5053958;28;20436;-85
2022/09/27 06:42:07;;;;;;;4.97;1.85;;;14.10;99.90;;;;;;5072526;28;20115;-83
2022/09/27 06:44:33;;;;;;;2.40;1.48;;;14.10;99.90;;;;;;5070037;28;20148;-83
2022/09/27 06:46:59;;;;;;;3.90;2.00;;;14.00;99.90;;;;;;5054808;28;20103;-82
2022/09/27 06:49:24;;;;;;;2.67;1.50;;;14.00;99.90;;;;;;5053352;28;20059;-83
2022/09/27 06:51:51;;;;;;;2.85;1.67;;;14.00;99.90;;;;;;5053554;28;20071;-85
2022/09/27 06:54:17;;;;;;;4.03;1.73;;;14.10;99.90;;;;;;5049077;28;20043;-83
2022/09/27 06:56:45;;;;;;;3.38;1.50;;;14.10;99.90;;;;;;5051446;28;20111;-84
2022/09/27 07:01:55;;;;;;;3.95;2.10;;;14.10;99.90;;;;;;5065471;28;20401;-85
2022/09/27 07:04:21;;;;;;;2.35;2.03;;;14.10;99.90;;;;;;5053627;28;20032;-84
2022/09/27 07:06:47;;;;;;;2.70;1.80;;;14.10;99.90;;;;;;5044653;28;20078;-84
2022/09/27 07:09:13;;;;;;;4.15;1.70;;;14.10;99.90;;;;;;5044930;28;20036;-83
2022/09/27 07:11:39;;;;;;;3.03;1.40;;;14.10;99.90;;;;;;5041223;28;20032;-83
2022/09/27 07:14:05;;;;;;;2.28;1.50;;;14.10;99.90;;;;;;5050441;28;20052;-83
2022/09/27 07:16:33;;;;;;;3.88;1.75;;;14.10;99.90;;;;;;5052253;28;20032;-85
2022/09/27 07:19:00;;;;;;;3.35;1.92;;;14.10;99.90;;;;;;5046296;28;20013;-83
2022/09/27 07:21:26;;;;;;;3.83;1.38;;;14.10;99.90;;;;;;5051870;28;20090;-83
2022/09/27 07:23:52;;;;;;;3.05;1.30;;;14.10;99.90;;;;;;5048005;28;20063;-84
2022/09/27 07:26:18;;;;;;;4.93;1.50;;;14.10;99.90;;;;;;5056893;28;20473;-83
2022/09/27 07:28:44;;;;;;;2.50;1.67;;;14.10;99.90;;;;;;5054919;28;20028;-84
2022/09/27 07:31:11;;;;;;;3.80;1.42;;;14.10;99.90;;;;;;5042259;28;20104;-84
2022/09/27 07:33:38;;;;;;;2.65;1.48;;;14.10;99.90;;;;;;5048521;28;20056;-85
2022/09/27 07:36:09;;;;;;;4.55;1.58;;;14.10;99.90;;;;;;5046310;28;20547;-86
2022/09/27 07:38:35;;;;;;;4.50;1.50;;;14.10;99.90;;;;;;5061538;28;20052;-84
2022/09/27 07:41:27;;;;;;;1.75;1.30;;;14.00;99.90;;;;;;5049154;28;20121;-84
2022/09/27 07:43:53;;;;;;;2.35;1.40;;;14.10;99.90;;;;;;5048245;28;20031;-86
2022/09/27 07:46:19;;;;;;;1.75;1.30;;;14.10;99.90;;;;;;5052669;28;20020;-85
2022/09/27 07:48:45;;;;;;;2.28;1.38;;;14.10;99.90;;;;;;5051970;28;20028;-84
2022/09/27 07:51:11;;;;;;;3.97;1.70;;;14.10;99.90;;;;;;5065537;28;20028;-88
2022/09/27 07:53:36;;;;;;;4.95;1.92;;;14.10;99.90;;;;;;5050849;28;20028;-83
2022/09/27 07:56:02;;;;;;;1.85;1.23;;;14.10;99.90;;;;;;5061650;28;20103;-83
2022/09/27 07:58:29;;;;;;;1.73;0.90;;;14.10;99.90;;;;;;5068564;28;20035;-84
2022/09/27 08:00:55;;;;;;;2.42;1.48;;;14.10;99.90;;;;;;5044328;28;20020;-83
2022/09/27 08:03:20;;;;;;;4.22;1.85;;;14.10;99.90;;;;;;5064775;28;20116;-87
2022/09/27 08:05:47;;;;;;;2.78;1.30;;;14.10;99.90;;;;;;5041753;28;20370;-83
2022/09/27 08:08:14;;;;;;;3.67;1.60;;;14.10;99.90;;;;;;5050663;28;20397;-85
2022/09/27 08:10:45;;;;;;;1.65;1.02;;;14.00;99.90;;;;;;5065034;28;20060;-83
2022/09/27 08:13:11;;;;;;;3.95;1.92;;;14.10;99.90;;;;;;5022662;28;20143;-85
2022/09/27 08:15:40;;;;;;;3.55;1.52;;;14.10;99.90;;;;;;5039753;28;20063;-84
2022/09/27 08:18:08;;;;;;;2.00;1.38;;;14.10;99.90;;;;;;5040946;28;20028;-83
2022/09/27 08:20:34;;;;;;;4.03;1.80;;;14.00;99.90;;;;;;5060662;28;20074;-84
2022/09/27 08:23:02;;;;;;;3.42;1.17;;;14.00;99.90;;;;;;5064336;28;20020;-84
2022/09/27 08:25:29;;;;;;;2.35;1.58;;;14.00;99.90;;;;;;5042780;28;20393;-86
2022/09/27 08:28:00;;;;;;;4.47;1.20;;;14.00;99.90;;;;;;5050208;28;20036;-87
2022/09/27 08:30:28;;;;;;;2.38;1.33;;;14.00;99.90;;;;;;5050713;28;20036;-84
2022/09/27 08:32:58;;;;;;;4.38;1.75;;;14.00;99.90;;;;;;5053777;28;20025;-84
2022/09/27 08:35:24;;;;;;;3.67;1.25;;;14.00;99.90;;;;;;5036050;28;20162;-86
2022/09/27 08:37:58;;;;;;;1.90;1.00;;;14.00;99.90;;;;;;5067535;28;20476;-84
2022/09/27 08:40:47;;;;;;;2.00;1.35;;;14.10;99.90;;;;;;5058020;28;20029;-84
2022/09/27 08:43:22;;;;;;;2.63;1.10;;;14.10;99.90;;;;;;5053908;28;20040;-83
2022/09/27 08:46:01;;;;;;;7.90;1.30;;;14.00;99.90;;;;;;5065976;28;20578;-83
2022/09/27 08:48:28;;;;;;;2.45;1.73;;;14.00;99.90;;;;;;5066709;28;20017;-83
2022/09/27 08:50:55;;;;;;;2.88;1.33;;;14.00;99.90;;;;;;5066219;28;20031;-85
2022/09/27 08:53:32;;;;;;;2.80;1.27;;;14.00;99.90;;;;;;5051318;28;20032;-84
2022/09/27 08:56:01;;;;;;;1.20;0.70;;;14.10;99.90;;;;;;5053319;28;20025;-86
2022/09/27 08:58:42;;;;;;;2.00;1.23;;;14.00;99.90;;;;;;5047827;28;20031;-84
2022/09/27 09:01:14;;;;;;;2.85;1.40;;;14.00;99.90;;;;;;5060893;28;20028;-83
2022/09/27 09:03:48;;;;;;;2.63;1.00;;;14.00;99.90;;;;;;5071953;28;20090;-84
2022/09/27 09:06:41;;;;;;;2.17;1.00;;;14.00;99.90;;;;;;5040724;28;20024;-83
2022/09/27 09:09:10;;;;;;;1.75;1.33;;;14.10;99.90;;;;;;5057417;28;20400;-86
2022/09/27 09:14:42;;;;;;;1.52;1.35;;;14.00;99.90;;;;;;5045241;28;20088;-83
2022/09/27 09:17:48;;;;;;;1.67;1.13;;;14.10;99.90;;;;;;5055039;28;20055;-86
2022/09/27 09:20:57;;;;;;;2.03;1.17;;;14.10;99.90;;;;;;5052405;28;20427;-88
2022/09/27 09:23:36;;;;;;;1.33;0.80;;;14.10;99.90;;;;;;5045458;28;20028;-84
2022/09/27 09:26:43;;;;;;;1.92;1.33;;;14.10;99.90;;;;;;5069950;28;20488;-84
2022/09/27 09:29:51;;;;;;;2.10;1.17;;;14.10;99.90;;;;;;5043813;28;20420;-83
2022/09/27 09:32:38;;;;;;;4.85;1.25;;;14.10;99.90;;;;;;5039946;28;20041;-84
2022/09/27 09:35:14;;;;;;;2.63;1.20;;;14.10;99.90;;;;;;5068337;28;20021;-84
2022/09/27 09:37:52;;;;;;;1.92;1.25;;;14.10;99.90;;;;;;5048644;28;20027;-83
2022/09/27 09:40:28;;;;;;;1.95;1.25;;;14.10;99.90;;;;;;5055971;28;20024;-83
2022/09/27 09:43:20;;;;;;;4.90;1.52;;;14.10;99.90;;;;;;5055918;28;20028;-83
2022/09/27 09:45:51;;;;;;;2.10;1.33;;;14.10;99.90;;;;;;5069189;28;20032;-84
2022/09/27 09:48:40;;;;;;;1.23;1.13;;;14.10;99.90;;;;;;5074044;28;20040;-83
2022/09/27 09:51:10;;;;;;;1.55;1.02;;;14.10;99.90;;;;;;5051383;28;20035;-84
2022/09/27 09:53:52;;;;;;;1.58;1.20;;;14.10;99.90;;;;;;5039490;28;20025;-84
2022/09/27 09:56:23;;;;;;;1.52;1.23;;;14.10;99.90;;;;;;5050918;28;20396;-84
2022/09/27 09:59:03;;;;;;;2.15;1.33;;;14.10;99.90;;;;;;5055759;28;20025;-84
2022/09/27 10:01:37;;;;;;;1.42;1.20;;;14.10;99.90;;;;;;5066157;28;20048;-83
2022/09/27 10:04:03;;;;;;;4.05;1.70;;;14.10;99.90;;;;;;5058079;28;20025;-83
2022/09/27 10:06:30;;;;;;;1.83;0.90;;;14.10;99.90;;;;;;5052205;28;20331;-83
2022/09/27 10:08:56;;;;;;;5.57;1.48;;;14.10;99.90;;;;;;5046274;28;20031;-83
2022/09/27 10:11:22;;;;;;;1.60;1.33;;;14.10;99.90;;;;;;5059334;28;20111;-83
2022/09/27 10:13:48;;;;;;;3.00;1.48;;;14.10;99.90;;;;;;5021473;28;20041;-83
2022/09/27 10:16:18;;;;;;;1.80;1.05;;;14.10;99.90;;;;;;5065596;28;20020;-83
2022/09/27 10:18:46;;;;;;;1.48;1.17;;;14.10;99.90;;;;;;5052994;28;20024;-83
2022/09/27 10:21:18;;;;;;;1.83;1.40;;;14.10;99.90;;;;;;5069510;28;20066;-83
2022/09/27 10:24:09;;;;;;;2.60;1.40;;;14.10;99.90;;;;;;5040320;28;20423;-83
2022/09/27 10:26:41;;;;;;;3.65;1.30;;;14.10;99.90;;;;;;5042616;28;20033;-84
2022/09/27 10:29:16;;;;;;;2.08;1.38;;;14.10;99.90;;;;;;5043214;28;20532;-85
2022/09/27 10:31:46;;;;;;;1.92;1.45;;;14.10;99.90;;;;;;5038413;28;20024;-84
2022/09/27 10:34:29;;;;;;;3.65;1.30;;;14.10;99.90;;;;;;5041992;28;20017;-84
2022/09/27 10:37:22;;;;;;;2.37;1.70;;;14.10;99.90;;;;;;5053410;28;20067;-84
2022/09/27 10:39:52;;;;;;;3.50;1.95;;;14.10;99.90;;;;;;5068679;28;20492;-85
2022/09/27 10:42:31;;;;;;;2.60;2.00;;;14.10;99.90;;;;;;5055370;28;20027;-85
2022/09/27 10:44:57;;;;;;;3.25;2.53;;;14.10;99.90;;;;;;5066686;28;20051;-84
2022/09/27 10:47:25;;;;;;;4.40;2.50;;;14.10;99.90;;;;;;5067558;28;20032;-84
2022/09/27 10:49:51;;;;;;;8.77;2.47;;;14.10;99.90;;;;;;5065836;28;20029;-84
2022/09/27 10:52:23;;;;;;;4.03;2.28;;;14.10;99.90;;;;;;5049774;28;20028;-85
2022/09/27 10:55:22;;;;;;;3.97;2.70;;;14.10;99.90;;;;;;5054346;28;20401;-84
2022/09/27 10:57:51;;;;;;;10.13;2.22;;;14.10;99.90;;;;;;5043092;28;20487;-85
2022/09/27 11:00:30;;;;;;;5.78;2.78;;;14.00;99.90;;;;;;5071606;28;20074;-84
2022/09/27 11:03:01;;;;;;;4.82;2.33;;;14.10;99.90;;;;;;5053699;28;20029;-84
2022/09/27 11:05:30;;;;;;;5.38;2.60;;;14.10;99.90;;;;;;5067666;28;20035;-83
2022/09/27 11:07:58;;;;;;;4.15;2.47;;;14.10;99.90;;;;;;5051351;28;20571;-85
2022/09/27 11:10:32;;;;;;;3.97;2.00;;;14.10;99.90;;;;;;5056581;28;20044;-84
2022/09/27 11:13:11;;;;;;;4.13;2.10;;;14.10;99.90;;;;;;5051280;28;20029;-84
2022/09/27 11:16:00;;;;;;;5.93;2.25;;;14.10;99.90;;;;;;5043558;28;20037;-84
2022/09/27 11:18:41;;;;;;;3.63;2.10;;;14.10;99.90;;;;;;5051117;28;20562;-83
2022/09/27 11:21:38;;;;;;;3.55;2.08;;;14.10;99.90;;;;;;5051667;28;20448;-83
2022/09/27 11:24:19;;;;;;;2.88;1.90;;;14.10;99.90;;;;;;5061257;28;20550;-84
2022/09/27 11:27:07;;;;;;;4.25;2.30;;;14.10;99.90;;;;;;5061879;28;20539;-83
2022/09/27 11:29:44;;;;;;;3.45;2.33;;;14.10;99.90;;;;;;5057278;28;20481;-86
2022/09/27 11:32:36;;;;;;;7.18;2.85;;;14.10;99.90;;;;;;5062793;28;20027;-84
2022/09/27 11:35:21;;;;;;;5.78;2.67;;;14.10;99.90;;;;;;5061681;28;20060;-87
2022/09/27 11:37:55;;;;;;;6.90;3.17;;;14.10;99.90;;;;;;5040460;28;20078;-83
2022/09/27 11:40:34;;;;;;;5.72;2.78;;;14.10;99.90;;;;;;5070139;28;20020;-85
2022/09/27 11:43:15;;;;;;;6.32;2.75;;;14.10;99.90;;;;;;5064347;28;20094;-84
2022/09/27 11:45:56;;;;;;;4.63;2.20;;;14.10;99.90;;;;;;5045112;28;20020;-83
2022/09/27 11:48:44;;;;;;;3.15;2.25;;;14.20;99.90;;;;;;5063785;28;20098;-85
2022/09/27 11:51:37;;;;;;;4.88;2.15;;;14.20;99.90;;;;;;5058671;28;20055;-84
2022/09/27 11:54:12;;;;;;;3.55;2.75;;;14.20;99.90;;;;;;5060815;28;20020;-83
2022/09/27 11:56:49;;;;;;;3.13;2.13;;;14.10;99.90;;;;;;5040018;28;20035;-83
2022/09/27 11:59:27;;;;;;;4.13;2.38;;;14.20;99.90;;;;;;5052211;28;20122;-83
2022/09/27 12:02:03;;;;;;;5.40;2.03;;;14.10;99.90;;;;;;5068106;28;20017;-84
2022/09/27 12:04:48;;;;;;;2.95;2.25;;;14.10;99.90;;;;;;5067322;28;20017;-84
2022/09/27 12:07:32;;;;;;;3.58;2.20;;;14.10;99.90;;;;;;5056460;28;20025;-83
2022/09/27 12:10:08;;;;;;;4.78;2.40;;;14.10;99.90;;;;;;5050738;28;20396;-84
2022/09/27 12:12:36;;;;;;;10.32;2.45;;;14.10;99.90;;;;;;5049020;28;20159;-87
2022/09/27 12:15:05;;;;;;;4.03;2.50;;;14.10;99.90;;;;;;5043721;28;20098;-84
2022/09/27 12:17:39;;;;;;;4.13;2.05;;;14.10;99.90;;;;;;5045128;28;20506;-84
2022/09/27 12:20:34;;;;;;;5.50;2.40;;;14.10;99.90;;;;;;5066339;28;20063;-83
2022/09/27 12:23:30;;;;;;;3.83;2.20;;;14.10;99.90;;;;;;5057168;28;20032;-84
2022/09/27 12:26:04;;;;;;;3.70;2.67;;;14.10;99.90;;;;;;5050091;28;20028;-83
2022/09/27 12:28:40;;;;;;;2.90;2.20;;;14.20;99.90;;;;;;5052708;28;20036;-83
2022/09/27 12:31:51;;;;;;;;;;;;;;;;;;;;;
2022/09/27 12:34:30;;;;;;;2.58;1.92;;;14.20;99.90;;;;;;5058122;28;20033;-84
2022/09/27 12:37:11;;;;;;;2.42;1.95;;;14.20;99.90;;;;;;5051453;28;20484;-86
2022/09/27 12:39:43;;;;;;;4.82;2.83;;;14.10;99.90;;;;;;5052218;28;20377;-83
2022/09/27 12:42:30;;;;;;;5.43;2.83;;;14.10;99.90;;;;;;5047306;28;20043;-84
2022/09/27 12:44:56;;;;;;;3.50;2.88;;;14.10;99.90;;;;;;5057970;28;20025;-84
2022/09/27 12:47:50;;;;;;;3.38;3.08;;;14.10;99.90;;;;;;5050537;28;20035;-84
2022/09/27 12:50:38;;;;;;;4.18;3.03;;;14.10;99.90;;;;;;5095061;22;20029;-85
2022/09/27 12:53:18;;;;;;;4.47;2.85;;;14.10;99.90;;;;;;5045789;28;20494;-88
2022/09/27 12:56:11;;;;;;;3.55;2.50;;;14.20;99.90;;;;;;5050600;28;20414;-88
2022/09/27 12:59:10;;;;;;;5.38;2.97;;;14.10;99.90;;;;;;5016651;28;20857;-88
2022/09/27 13:02:05;;;;;;;5.15;3.00;;;14.10;99.90;;;;;;5044162;28;20436;-87
2022/09/27 13:04:45;;;;;;;5.40;3.67;;;14.10;99.90;;;;;;5037210;28;20014;-85
2022/09/27 13:07:23;;;;;;;4.35;3.15;;;14.10;99.90;;;;;;5037590;28;20681;-86
2022/09/27 13:10:16;;;;;;;5.43;2.78;;;14.10;99.90;;;;;;5036236;28;20517;-88
2022/09/27 13:12:48;;;;;;;6.22;3.40;;;14.10;99.90;;;;;;5030057;28;20026;-87
2022/09/27 13:15:24;;;;;;;7.30;3.97;;;14.10;99.90;;;;;;5012841;28;20073;-87
2022/09/27 13:18:02;;;;;;;4.20;3.10;;;14.10;99.90;;;;;;5052146;28;20033;-87
2022/09/27 13:20:34;;;;;;;5.70;3.67;;;14.10;99.90;;;;;;5055336;28;20025;-88
2022/09/27 13:23:24;;;;;;;5.20;3.20;;;14.10;99.90;;;;;;5036760;28;20057;-87
2022/09/27 13:25:59;;;;;;;4.03;2.67;;;14.10;99.90;;;;;;5035520;28;20024;-87
2022/09/27 13:28:27;;;;;;;4.72;3.05;;;14.10;99.90;;;;;;5033424;28;20482;-88